Time,TemperatureF,DewpointF,PressureIn,WindDirection,WindDirectionDegrees,WindSpeedMPH,WindSpeedGustMPH,Humidity,HourlyPrecipIn,Conditions,Clouds,dailyrainin,SolarRadiationWatts/m^2,SoftwareType,DateUTC
2013-10-17 00:01:00,52.5,46.2,29.97,NNW,338,5.8,5.8,79,0.00,RA,,0.00,0.0,WeatherDisplay:10.37,2013-10-17 04:01:00,
2013-10-17 00:06:00,52.2,45.8,29.97,NNW,338,6.0,6.0,79,0.00,RA,,0.00,0.0,WeatherDisplay:10.37,2013-10-17 04:06:00,
2013-10-17 00:11:00,51.8,45.2,29.97,WNW,292,4.6,4.6,78,0.00,CLR,,0.00,0.0,WeatherDisplay:10.37,2013-10-17 04:11:00,
2013-10-17 00:16:00,51.3,45.0,29.97,NNW,338,5.8,5.8,79,0.00,CLR,,0.00,0.0,WeatherDisplay:10.37,2013-10-17 04:16:00,
2013-10-17 00:21:00,51.1,44.8,29.97,NNW,338,3.5,3.5,79,0.00,CLR,,0.00,0.0,WeatherDisplay:10.37,2013-10-17 04:21:00,
2013-10-17 00:26:00,50.5,44.6,29.97,NNW,338,4.6,4.6,80,0.00,CLR,,0.00,0.0,WeatherDisplay:10.37,2013-10-17 04:26:00,
2013-10-17 00:31:00,50.2,44.6,29.97,NNW,338,3.5,3.5,81,0.00,CLR,,0.00,0.0,WeatherDisplay:10.37,2013-10-17 04:31:00,
2013-10-17 00:36:00,49.6,44.4,29.97,NNW,338,3.5,3.5,82,0.00,CLR,,0.00,0.0,WeatherDisplay:10.37,2013-10-17 04:36:00,
2013-10-17 00:41:00,49.3,44.3,29.97,WNW,292,2.3,0.0,83,0.00,CLR,,0.00,0.0,WeatherDisplay:10.37,2013-10-17 04:41:00,
2013-10-17 00:46:00,48.9,44.3,29.97,NNW,338,3.5,3.5,84,0.00,CLR,,0.00,0.0,WeatherDisplay:10.37,2013-10-17 04:46:00,
2013-10-17 00:51:00,48.7,44.4,29.97,NNW,338,3.6,3.8,85,0.00,CLR,,0.00,0.0,WeatherDisplay:10.37,2013-10-17 04:51:00,
2013-10-17 00:56:00,48.7,44.7,29.97,NNW,338,5.8,5.8,86,0.00,CLR,,0.00,0.0,WeatherDisplay:10.37,2013-10-17 04:56:00,
2013-10-17 01:01:00,48.6,44.6,29.97,WNW,292,4.6,4.6,86,0.00,CLR,,0.00,0.0,WeatherDisplay:10.37,2013-10-17 05:01:00,
2013-10-17 01:06:00,48.2,44.2,29.97,North,0,3.1,3.1,86,0.00,CLR,,0.00,0.0,WeatherDisplay:10.37,2013-10-17 05:06:00,
2013-10-17 01:11:00,47.8,44.2,29.97,NNW,338,3.5,3.5,87,0.00,CLR,,0.00,0.0,WeatherDisplay:10.37,2013-10-17 05:11:00,
2013-10-17 01:16:00,47.5,43.8,29.97,NNE,22,2.3,2.3,87,0.00,CLR,,0.00,0.0,WeatherDisplay:10.37,2013-10-17 05:16:00,
2013-10-17 01:21:00,47.1,43.7,29.97,NNW,338,1.6,0.0,88,0.00,CLR,,0.00,0.0,WeatherDisplay:10.37,2013-10-17 05:21:00,
2013-10-17 01:26:00,46.8,43.4,29.97,ENE,68,0.0,0.0,88,0.00,CLR,,0.00,0.0,WeatherDisplay:10.37,2013-10-17 05:26:00,
2013-10-17 01:31:00,46.4,43.3,29.97,North,0,0.0,0.0,89,0.00,CLR,,0.00,0.0,WeatherDisplay:10.37,2013-10-17 05:31:00,
2013-10-17 01:36:00,46.2,43.4,29.97,NNE,22,0.0,0.0,90,0.00,CLR,,0.00,0.0,WeatherDisplay:10.37,2013-10-17 05:36:00,
2013-10-17 01:41:00,45.7,42.9,29.97,ENE,68,0.0,0.0,90,0.00,CLR,,0.00,0.0,WeatherDisplay:10.37,2013-10-17 05:41:00,
2013-10-17 01:46:00,45.5,42.7,29.97,NNE,22,0.0,0.0,90,0.00,CLR,,0.00,0.0,WeatherDisplay:10.37,2013-10-17 05:46:00,
2013-10-17 01:51:00,45.1,42.7,29.97,NNE,22,0.0,0.0,91,0.00,CLR,,0.00,0.0,WeatherDisplay:10.37,2013-10-17 05:51:00,
2013-10-17 01:56:00,44.8,42.3,29.97,NNE,22,0.0,0.0,91,0.00,CLR,,0.00,0.0,WeatherDisplay:10.37,2013-10-17 05:56:00,
2013-10-17 02:01:00,44.4,42.2,29.97,NNE,22,0.0,0.0,92,0.00,CLR,,0.00,0.0,WeatherDisplay:10.37,2013-10-17 06:01:00,
2013-10-17 02:06:00,44.1,41.9,29.97,NNE,22,0.0,0.0,92,0.00,CLR,,0.00,0.0,WeatherDisplay:10.37,2013-10-17 06:06:00,
2013-10-17 02:11:00,44.1,42.2,29.97,NNE,22,0.0,0.0,93,0.00,CLR,,0.00,0.0,WeatherDisplay:10.37,2013-10-17 06:11:00,
2013-10-17 02:16:00,43.9,42.0,29.97,ENE,68,0.0,0.0,93,0.00,CLR,,0.00,0.0,WeatherDisplay:10.37,2013-10-17 06:16:00,
2013-10-17 02:21:00,43.5,41.6,29.97,ENE,68,0.0,0.0,93,0.00,CLR,,0.00,0.0,WeatherDisplay:10.37,2013-10-17 06:21:00,
2013-10-17 02:26:00,43.5,41.6,29.97,ENE,68,0.0,0.0,93,0.00,CLR,,0.00,0.0,WeatherDisplay:10.37,2013-10-17 06:26:00,
2013-10-17 02:31:00,43.3,41.7,29.97,ENE,68,0.0,0.0,94,0.00,CLR,,0.00,0.0,WeatherDisplay:10.37,2013-10-17 06:31:00,
2013-10-17 02:36:00,43.0,41.4,29.97,ENE,68,0.0,0.0,94,0.00,CLR,,0.00,0.0,WeatherDisplay:10.37,2013-10-17 06:36:00,
2013-10-17 02:41:00,43.0,41.4,29.97,ENE,68,0.0,0.0,94,0.00,CLR,,0.00,0.0,WeatherDisplay:10.37,2013-10-17 06:41:00,
2013-10-17 02:46:00,43.2,41.6,29.97,North,0,0.0,0.0,94,0.00,CLR,,0.00,0.0,WeatherDisplay:10.37,2013-10-17 06:46:00,
2013-10-17 02:51:00,43.0,41.4,29.97,NNE,22,0.0,0.0,94,0.00,CLR,,0.00,0.0,WeatherDisplay:10.37,2013-10-17 06:51:00,
2013-10-17 02:56:00,43.0,41.4,29.97,NNE,22,0.0,0.0,94,0.00,CLR,,0.00,0.0,WeatherDisplay:10.37,2013-10-17 06:56:00,
2013-10-17 03:01:00,43.0,41.6,29.97,NE,45,0.0,0.0,95,0.00,CLR,,0.00,0.0,WeatherDisplay:10.37,2013-10-17 07:01:00,
2013-10-17 03:07:00,42.8,41.5,29.97,NE,45,0.0,0.0,95,0.00,CLR,,0.00,0.0,WeatherDisplay:10.37,2013-10-17 07:07:00,
2013-10-17 03:12:00,43.2,41.8,29.97,NNE,22,0.0,0.0,95,0.00,CLR,,0.00,0.0,WeatherDisplay:10.37,2013-10-17 07:12:00,
2013-10-17 03:17:00,43.3,42.0,29.94,NNW,338,2.3,2.3,95,0.00,CLR,,0.00,0.0,WeatherDisplay:10.37,2013-10-17 07:17:00,
2013-10-17 03:22:00,43.0,41.6,29.94,NNE,22,0.0,0.0,95,0.00,CLR,,0.00,0.0,WeatherDisplay:10.37,2013-10-17 07:22:00,
2013-10-17 03:27:00,43.2,41.8,29.94,NNE,22,0.0,0.0,95,0.00,CLR,,0.00,0.0,WeatherDisplay:10.37,2013-10-17 07:27:00,
2013-10-17 03:32:00,43.2,41.8,29.94,NNW,338,2.9,2.9,95,0.00,CLR,,0.00,0.0,WeatherDisplay:10.37,2013-10-17 07:32:00,
2013-10-17 03:37:00,43.3,42.0,29.94,NNW,338,0.0,0.0,95,0.00,CLR,,0.00,0.0,WeatherDisplay:10.37,2013-10-17 07:37:00,
2013-10-17 03:42:00,43.3,42.0,29.94,NE,45,2.3,0.0,95,0.00,CLR,,0.00,0.0,WeatherDisplay:10.37,2013-10-17 07:42:00,
2013-10-17 03:47:00,43.2,41.8,29.97,NNE,22,0.0,0.0,95,0.00,CLR,,0.00,0.0,WeatherDisplay:10.37,2013-10-17 07:47:00,
2013-10-17 03:52:00,43.0,41.6,29.97,ENE,68,0.0,0.0,95,0.00,CLR,,0.00,0.0,WeatherDisplay:10.37,2013-10-17 07:52:00,
2013-10-17 03:57:00,42.6,41.6,29.97,ENE,68,0.0,0.0,96,0.00,CLR,,0.00,0.0,WeatherDisplay:10.37,2013-10-17 07:57:00,
2013-10-17 04:02:00,42.4,41.4,29.94,ENE,68,0.0,0.0,96,0.00,CLR,,0.00,0.0,WeatherDisplay:10.37,2013-10-17 08:02:00,
2013-10-17 04:07:00,42.3,41.2,29.94,ENE,68,0.0,0.0,96,0.00,CLR,,0.00,0.0,WeatherDisplay:10.37,2013-10-17 08:07:00,
2013-10-17 04:08:00,42.3,41.2,29.94,ENE,68,0.0,0.0,96,0.00,CLR,,0.00,0.0,WeatherDisplay:10.37,2013-10-17 08:08:00,
2013-10-17 04:13:00,42.3,41.2,29.94,ENE,68,0.0,0.0,96,0.00,CLR,,0.00,0.0,WeatherDisplay:10.37,2013-10-17 08:13:00,
2013-10-17 04:18:00,42.1,41.0,29.94,ENE,68,0.0,0.0,96,0.00,CLR,,0.00,0.0,WeatherDisplay:10.37,2013-10-17 08:18:00,
2013-10-17 04:23:00,41.7,40.7,29.94,ENE,68,0.0,0.0,96,0.00,CLR,,0.00,0.0,WeatherDisplay:10.37,2013-10-17 08:23:00,
2013-10-17 04:28:00,41.7,40.7,29.94,ENE,68,0.0,0.0,96,0.00,CLR,,0.00,0.0,WeatherDisplay:10.37,2013-10-17 08:28:00,
2013-10-17 04:33:00,41.4,40.3,29.94,ENE,68,0.0,0.0,96,0.00,CLR,,0.00,0.0,WeatherDisplay:10.37,2013-10-17 08:33:00,
2013-10-17 04:38:00,41.2,40.1,29.94,ENE,68,0.0,0.0,96,0.00,CLR,,0.00,0.0,WeatherDisplay:10.37,2013-10-17 08:38:00,
2013-10-17 04:43:00,41.2,40.4,29.94,ENE,68,0.0,0.0,97,0.00,CLR,,0.00,0.0,WeatherDisplay:10.37,2013-10-17 08:43:00,
2013-10-17 04:48:00,40.8,40.0,29.94,ENE,68,0.0,0.0,97,0.00,CLR,,0.00,0.0,WeatherDisplay:10.37,2013-10-17 08:48:00,
2013-10-17 04:53:00,40.8,40.0,29.94,ENE,68,0.0,0.0,97,0.00,CLR,,0.00,0.0,WeatherDisplay:10.37,2013-10-17 08:53:00,
2013-10-17 04:58:00,41.0,40.2,29.94,ENE,68,0.0,0.0,97,0.00,CLR,,0.00,0.0,WeatherDisplay:10.37,2013-10-17 08:58:00,
2013-10-17 05:03:00,41.2,40.4,29.94,ENE,68,0.0,0.0,97,0.00,CLR,,0.00,0.0,WeatherDisplay:10.37,2013-10-17 09:03:00,
2013-10-17 05:08:00,41.0,40.2,29.94,ENE,68,0.0,0.0,97,0.00,CLR,,0.00,0.0,WeatherDisplay:10.37,2013-10-17 09:08:00,
2013-10-17 05:13:00,41.4,40.8,29.94,ENE,68,0.0,0.0,98,0.00,CLR,,0.00,0.0,WeatherDisplay:10.37,2013-10-17 09:13:00,
2013-10-17 05:18:00,41.2,40.7,29.94,ENE,68,0.0,0.0,98,0.00,CLR,,0.00,0.0,WeatherDisplay:10.37,2013-10-17 09:18:00,
2013-10-17 05:23:00,40.6,40.1,29.94,ENE,68,0.0,0.0,98,0.00,CLR,,0.00,0.0,WeatherDisplay:10.37,2013-10-17 09:23:00,
2013-10-17 05:28:00,40.8,40.3,29.94,ESE,112,0.0,0.0,98,0.00,CLR,,0.00,0.0,WeatherDisplay:10.37,2013-10-17 09:28:00,
2013-10-17 05:33:00,41.4,40.8,29.94,ESE,112,0.0,0.0,98,0.00,CLR,,0.00,0.0,WeatherDisplay:10.37,2013-10-17 09:33:00,
2013-10-17 05:38:00,41.2,40.4,29.94,ESE,112,0.0,0.0,97,0.00,CLR,,0.00,0.0,WeatherDisplay:10.37,2013-10-17 09:38:00,
2013-10-17 05:43:00,40.8,40.3,29.94,ESE,112,0.0,0.0,98,0.00,CLR,,0.00,0.0,WeatherDisplay:10.37,2013-10-17 09:43:00,
2013-10-17 05:48:00,40.6,40.1,29.94,ESE,112,0.0,0.0,98,0.00,CLR,,0.00,0.0,WeatherDisplay:10.37,2013-10-17 09:48:00,
2013-10-17 05:53:00,40.6,40.1,29.94,ENE,68,0.0,0.0,98,0.00,CLR,,0.00,0.0,WeatherDisplay:10.37,2013-10-17 09:53:00,
2013-10-17 05:58:00,40.8,40.3,29.94,ENE,68,0.0,0.0,98,0.00,CLR,,0.00,0.0,WeatherDisplay:10.37,2013-10-17 09:58:00,
2013-10-17 06:03:00,40.8,40.3,29.94,NNE,22,0.0,0.0,98,0.00,CLR,,0.00,0.0,WeatherDisplay:10.37,2013-10-17 10:03:00,
2013-10-17 06:08:00,40.6,40.1,29.94,NNE,22,0.0,0.0,98,0.00,CLR,,0.00,0.0,WeatherDisplay:10.37,2013-10-17 10:08:00,
2013-10-17 06:13:00,40.6,40.1,29.91,NNE,22,0.0,0.0,98,0.00,CLR,,0.00,0.0,WeatherDisplay:10.37,2013-10-17 10:13:00,
2013-10-17 06:18:00,40.3,39.8,29.91,NNE,22,0.0,0.0,98,0.00,CLR,,0.00,0.0,WeatherDisplay:10.37,2013-10-17 10:18:00,
2013-10-17 06:23:00,40.3,39.8,29.91,NNE,22,0.0,0.0,98,0.00,CLR,,0.00,0.0,WeatherDisplay:10.37,2013-10-17 10:23:00,
2013-10-17 06:28:00,40.3,39.8,29.94,NNE,22,0.0,0.0,98,0.00,CLR,,0.00,0.0,WeatherDisplay:10.37,2013-10-17 10:28:00,
2013-10-17 06:33:00,40.5,39.9,29.94,ENE,68,0.0,0.0,98,0.00,CLR,,0.00,0.0,WeatherDisplay:10.37,2013-10-17 10:33:00,
2013-10-17 06:38:00,40.5,39.9,29.94,ENE,68,0.0,0.0,98,0.00,CLR,,0.00,0.0,WeatherDisplay:10.37,2013-10-17 10:38:00,
2013-10-17 06:43:00,40.8,40.3,29.94,SSE,158,0.0,0.0,98,0.00,CLR,,0.00,0.0,WeatherDisplay:10.37,2013-10-17 10:43:00,
2013-10-17 06:48:00,40.5,39.9,29.94,SSE,158,0.0,0.0,98,0.00,CLR,,0.00,0.0,WeatherDisplay:10.37,2013-10-17 10:48:00,
2013-10-17 06:53:00,40.5,39.9,29.94,ESE,112,0.0,0.0,98,0.00,CLR,,0.00,0.0,WeatherDisplay:10.37,2013-10-17 10:53:00,
2013-10-17 06:58:00,40.3,39.8,29.94,ESE,112,0.0,0.0,98,0.00,CLR,,0.00,0.0,WeatherDisplay:10.37,2013-10-17 10:58:00,
2013-10-17 07:04:00,39.9,39.4,29.94,ESE,112,0.0,0.0,98,0.00,CLR,,0.00,0.0,WeatherDisplay:10.37,2013-10-17 11:04:00,
2013-10-17 07:08:00,40.5,39.9,29.94,SE,135,2.4,2.4,98,0.00,CLR,,0.00,0.0,WeatherDisplay:10.37,2013-10-17 11:08:00,
2013-10-17 07:14:00,41.2,40.7,29.91,ESE,112,2.4,2.4,98,0.00,CLR,,0.00,0.0,WeatherDisplay:10.37,2013-10-17 11:14:00,
2013-10-17 07:19:00,41.2,40.7,29.91,ESE,112,2.3,2.3,98,0.00,CLR,,0.00,0.0,WeatherDisplay:10.37,2013-10-17 11:19:00,
2013-10-17 07:24:00,41.2,40.7,29.91,ESE,112,0.0,0.0,98,0.00,CLR,,0.00,0.0,WeatherDisplay:10.37,2013-10-17 11:24:00,
2013-10-17 07:29:00,40.6,40.1,29.94,ESE,112,0.0,0.0,98,0.00,CLR,,0.00,0.0,WeatherDisplay:10.37,2013-10-17 11:29:00,
2013-10-17 07:34:00,40.5,39.9,29.94,East,90,0.0,0.0,98,0.00,CLR,,0.00,0.0,WeatherDisplay:10.37,2013-10-17 11:34:00,
2013-10-17 07:39:00,40.3,39.8,29.94,East,90,0.0,0.0,98,0.00,CLR,,0.00,0.0,WeatherDisplay:10.37,2013-10-17 11:39:00,
2013-10-17 07:44:00,40.3,39.8,29.94,East,90,0.0,0.0,98,0.00,CLR,,0.00,0.0,WeatherDisplay:10.37,2013-10-17 11:44:00,
2013-10-17 07:49:00,39.9,39.4,29.94,East,90,0.0,0.0,98,0.00,CLR,,0.00,0.0,WeatherDisplay:10.37,2013-10-17 11:49:00,
2013-10-17 07:54:00,39.9,39.4,29.94,East,90,0.0,0.0,98,0.00,CLR,,0.00,0.0,WeatherDisplay:10.37,2013-10-17 11:54:00,
2013-10-17 07:59:00,40.1,39.6,29.91,ENE,68,0.0,0.0,98,0.00,CLR,,0.00,0.0,WeatherDisplay:10.37,2013-10-17 11:59:00,
2013-10-17 08:04:00,40.1,39.6,29.91,ENE,68,0.0,0.0,98,0.00,CLR,,0.00,0.0,WeatherDisplay:10.37,2013-10-17 12:04:00,
2013-10-17 08:09:00,40.5,39.9,29.91,SSE,158,0.0,0.0,98,0.00,CLR,,0.00,0.0,WeatherDisplay:10.37,2013-10-17 12:09:00,
2013-10-17 08:14:00,40.6,40.1,29.94,SSE,158,0.0,0.0,98,0.00,CLR,,0.00,0.0,WeatherDisplay:10.37,2013-10-17 12:14:00,
2013-10-17 08:19:00,40.8,40.3,29.94,SSE,158,0.0,0.0,98,0.00,CLR,,0.00,0.0,WeatherDisplay:10.37,2013-10-17 12:19:00,
2013-10-17 08:24:00,41.2,40.7,29.94,ESE,112,0.0,0.0,98,0.00,CLR,,0.00,0.0,WeatherDisplay:10.37,2013-10-17 12:24:00,
2013-10-17 08:29:00,41.4,40.8,29.91,ESE,112,0.0,0.0,98,0.00,CLR,,0.00,0.0,WeatherDisplay:10.37,2013-10-17 12:29:00,
2013-10-17 08:34:00,41.5,41.0,29.91,ESE,112,0.0,0.0,98,0.00,CLR,,0.00,0.0,WeatherDisplay:10.37,2013-10-17 12:34:00,
2013-10-17 08:39:00,41.5,41.0,29.91,ESE,112,0.0,0.0,98,0.00,CLR,,0.00,0.0,WeatherDisplay:10.37,2013-10-17 12:39:00,
2013-10-17 08:44:00,41.7,41.2,29.91,ENE,68,0.0,0.0,98,0.00,CLR,,0.00,0.0,WeatherDisplay:10.37,2013-10-17 12:44:00,
2013-10-17 08:49:00,42.1,41.6,29.91,ENE,68,0.0,0.0,98,0.00,CLR,,0.00,0.0,WeatherDisplay:10.37,2013-10-17 12:49:00,
2013-10-17 08:54:00,42.3,41.7,29.91,ENE,68,2.4,2.4,98,0.00,CLR,,0.00,0.0,WeatherDisplay:10.37,2013-10-17 12:54:00,
2013-10-17 08:59:00,42.8,42.3,29.91,ESE,112,1.2,0.0,98,0.00,CLR,,0.00,100.0,WeatherDisplay:10.37,2013-10-17 12:59:00,
2013-10-17 09:04:00,43.3,42.8,29.91,ENE,68,2.3,2.3,98,0.00,CLR,,0.00,100.0,WeatherDisplay:10.37,2013-10-17 13:04:00,
2013-10-17 09:09:00,44.2,43.7,29.91,ENE,68,3.5,3.5,98,0.00,CLR,,0.00,100.0,WeatherDisplay:10.37,2013-10-17 13:09:00,
2013-10-17 09:14:00,45.1,44.6,29.91,SSE,158,1.2,1.4,98,0.00,CLR,,0.00,200.0,WeatherDisplay:10.37,2013-10-17 13:14:00,
2013-10-17 09:19:00,45.9,45.3,29.91,ESE,112,3.1,3.1,98,0.00,CLR,,0.00,100.0,WeatherDisplay:10.37,2013-10-17 13:19:00,
2013-10-17 09:24:00,46.0,45.5,29.91,ESE,112,3.5,3.5,98,0.00,CLR,,0.00,100.0,WeatherDisplay:10.37,2013-10-17 13:24:00,
2013-10-17 09:29:00,46.6,46.0,29.91,NNE,22,2.3,2.3,98,0.00,CLR,,0.00,200.0,WeatherDisplay:10.37,2013-10-17 13:29:00,
2013-10-17 09:34:00,47.1,46.6,29.91,ENE,68,1.2,1.2,98,0.00,CLR,,0.00,200.0,WeatherDisplay:10.37,2013-10-17 13:34:00,
2013-10-17 09:39:00,47.5,46.9,29.91,ESE,112,2.3,2.3,98,0.00,CLR,,0.00,200.0,WeatherDisplay:10.37,2013-10-17 13:39:00,
2013-10-17 09:44:00,47.8,47.0,29.91,ESE,112,3.5,3.5,97,0.00,CLR,,0.00,200.0,WeatherDisplay:10.37,2013-10-17 13:44:00,
2013-10-17 09:49:00,49.5,48.1,29.91,SSE,158,3.5,3.5,95,0.00,CLR,,0.00,400.0,WeatherDisplay:10.37,2013-10-17 13:49:00,
2013-10-17 09:54:00,51.4,49.8,29.91,ESE,112,3.5,3.5,94,0.00,CLR,,0.00,500.0,WeatherDisplay:10.37,2013-10-17 13:54:00,
2013-10-17 09:59:00,50.7,47.9,29.91,NNE,22,2.3,0.0,90,0.00,CLR,,0.00,400.0,WeatherDisplay:10.37,2013-10-17 13:59:00,
2013-10-17 10:04:00,51.1,49.1,29.91,NNE,22,0.0,0.0,93,0.00,CLR,,0.00,500.0,WeatherDisplay:10.37,2013-10-17 14:04:00,
2013-10-17 10:09:00,51.4,49.2,29.91,ENE,68,0.0,0.0,92,0.00,CLR,,0.00,400.0,WeatherDisplay:10.37,2013-10-17 14:09:00,
2013-10-17 10:14:00,51.3,48.4,29.91,SSE,158,0.0,0.0,90,0.00,CLR,,0.00,400.0,WeatherDisplay:10.37,2013-10-17 14:14:00,
2013-10-17 10:19:00,52.0,49.7,29.91,NNW,338,0.0,0.0,92,0.00,CLR,,0.00,500.0,WeatherDisplay:10.37,2013-10-17 14:19:00,
2013-10-17 10:24:00,52.2,49.9,29.91,South,180,2.3,2.3,92,0.00,CLR,,0.00,400.0,WeatherDisplay:10.37,2013-10-17 14:24:00,
2013-10-17 10:29:00,52.0,48.5,29.91,SSW,202,2.0,2.0,88,0.00,CLR,,0.00,400.0,WeatherDisplay:10.37,2013-10-17 14:29:00,
2013-10-17 10:34:00,52.2,47.8,29.91,SSE,158,2.3,2.3,85,0.00,CLR,,0.00,300.0,WeatherDisplay:10.37,2013-10-17 14:34:00,
2013-10-17 10:39:00,52.5,48.1,29.91,SSW,202,1.4,1.4,85,0.00,CLR,,0.00,500.0,WeatherDisplay:10.37,2013-10-17 14:39:00,
2013-10-17 10:44:00,53.2,48.2,29.91,SSE,158,2.3,2.3,83,0.00,CLR,,0.00,800.0,WeatherDisplay:10.37,2013-10-17 14:44:00,
2013-10-17 10:49:00,53.8,48.4,29.91,SSE,158,2.3,2.3,82,0.00,CLR,,0.00,700.0,WeatherDisplay:10.37,2013-10-17 14:49:00,
2013-10-17 10:54:00,54.5,48.8,29.91,ESE,112,0.0,0.0,81,0.00,CLR,,0.00,600.0,WeatherDisplay:10.37,2013-10-17 14:54:00,
2013-10-17 10:59:00,54.7,48.6,29.91,NNW,338,2.3,2.3,80,0.00,CLR,,0.00,400.0,WeatherDisplay:10.37,2013-10-17 14:59:00,
2013-10-17 11:04:00,54.9,49.5,29.91,WNW,292,3.5,3.5,82,0.00,CLR,,0.00,600.0,WeatherDisplay:10.37,2013-10-17 15:04:00,
2013-10-17 11:09:00,54.5,48.1,29.91,WNW,292,3.5,3.5,79,0.00,CLR,,0.00,500.0,WeatherDisplay:10.37,2013-10-17 15:09:00,
2013-10-17 11:14:00,54.3,48.3,29.88,NNW,338,3.5,3.5,80,0.00,CLR,,0.00,500.0,WeatherDisplay:10.37,2013-10-17 15:14:00,
2013-10-17 11:19:00,54.3,48.6,29.88,WNW,292,3.5,3.5,81,0.00,CLR,,0.00,800.0,WeatherDisplay:10.37,2013-10-17 15:19:00,
2013-10-17 11:24:00,53.6,47.6,29.88,WNW,292,4.6,4.6,80,0.00,CLR,,0.00,400.0,WeatherDisplay:10.37,2013-10-17 15:24:00,
2013-10-17 11:29:00,53.1,46.7,29.91,NW,315,4.6,4.6,79,0.00,CLR,,0.00,400.0,WeatherDisplay:10.37,2013-10-17 15:29:00,
2013-10-17 11:34:00,53.2,47.2,29.91,NNW,338,2.6,2.6,80,0.00,CLR,,0.00,500.0,WeatherDisplay:10.37,2013-10-17 15:34:00,
2013-10-17 11:39:00,53.4,47.7,29.91,NNW,338,2.4,2.4,81,0.00,CLR,,0.00,500.0,WeatherDisplay:10.37,2013-10-17 15:39:00,
2013-10-17 11:44:00,54.0,48.3,29.88,WNW,292,2.3,2.3,81,0.00,CLR,,0.00,400.0,WeatherDisplay:10.37,2013-10-17 15:44:00,
2013-10-17 11:49:00,54.7,49.0,29.88,NNE,22,1.2,0.0,81,0.00,CLR,,0.00,800.0,WeatherDisplay:10.37,2013-10-17 15:49:00,
2013-10-17 11:54:00,55.6,49.2,29.88,NNE,22,1.2,0.0,79,0.00,CLR,,0.00,900.0,WeatherDisplay:10.37,2013-10-17 15:54:00,
2013-10-17 11:59:00,55.9,48.5,29.88,SSE,158,2.3,2.3,76,0.00,CLR,,0.00,800.0,WeatherDisplay:10.37,2013-10-17 15:59:00,
2013-10-17 12:04:00,55.8,48.3,29.88,NNW,338,2.4,2.4,76,0.00,CLR,,0.00,400.0,WeatherDisplay:10.37,2013-10-17 16:04:00,
2013-10-17 12:09:00,54.9,47.1,29.88,NNW,338,3.3,3.3,75,0.00,CLR,,0.00,200.0,WeatherDisplay:10.37,2013-10-17 16:09:00,
2013-10-17 12:14:00,54.1,46.0,29.88,WNW,292,4.6,4.6,74,0.00,CLR,,0.00,200.0,WeatherDisplay:10.37,2013-10-17 16:14:00,
2013-10-17 12:19:00,53.8,45.7,29.88,WNW,292,5.8,5.8,74,0.00,CLR,,0.00,400.0,WeatherDisplay:10.37,2013-10-17 16:19:00,
2013-10-17 12:24:00,53.6,45.5,29.88,WNW,292,5.8,5.8,74,0.00,CLR,,0.00,400.0,WeatherDisplay:10.37,2013-10-17 16:24:00,
2013-10-17 12:29:00,53.4,46.0,29.88,West,270,8.7,8.7,76,0.00,CLR,,0.00,400.0,WeatherDisplay:10.37,2013-10-17 16:29:00,
2013-10-17 12:34:00,53.1,46.4,29.88,WNW,292,8.1,8.1,78,0.00,CLR,,0.00,200.0,WeatherDisplay:10.37,2013-10-17 16:34:00,
2013-10-17 12:39:00,52.9,46.5,29.88,NNW,338,8.1,8.1,79,0.00,CLR,,0.00,200.0,WeatherDisplay:10.37,2013-10-17 16:39:00,
2013-10-17 12:44:00,52.7,45.7,29.91,WNW,292,10.2,10.2,77,0.00,CLR,,0.00,300.0,WeatherDisplay:10.37,2013-10-17 16:44:00,
2013-10-17 12:49:00,52.2,45.5,29.91,WNW,292,10.4,10.4,78,0.00,CLR,,0.00,200.0,WeatherDisplay:10.37,2013-10-17 16:49:00,
2013-10-17 12:54:00,52.0,45.7,29.91,WNW,292,10.4,10.4,79,0.00,CLR,,0.00,400.0,WeatherDisplay:10.37,2013-10-17 16:54:00,
2013-10-17 12:59:00,51.8,46.5,29.91,WNW,292,11.5,11.5,82,0.04,RA,,0.04,400.0,WeatherDisplay:10.37,2013-10-17 16:59:00,
2013-10-17 13:04:00,51.3,47.2,29.91,WNW,292,8.1,8.1,86,0.04,RA,,0.04,400.0,WeatherDisplay:10.37,2013-10-17 17:04:00,
2013-10-17 13:09:00,51.1,47.6,29.91,WNW,292,10.4,10.4,88,0.04,CLR,,0.04,400.0,WeatherDisplay:10.37,2013-10-17 17:09:00,
2013-10-17 13:14:00,50.7,47.9,29.88,WNW,292,8.1,8.1,90,0.04,CLR,,0.04,200.0,WeatherDisplay:10.37,2013-10-17 17:14:00,
2013-10-17 13:19:00,50.2,47.7,29.88,NNW,338,8.1,8.1,91,0.04,CLR,,0.04,100.0,WeatherDisplay:10.37,2013-10-17 17:19:00,
2013-10-17 13:24:00,50.0,47.8,29.88,NNW,338,9.2,9.2,92,0.04,CLR,,0.04,100.0,WeatherDisplay:10.37,2013-10-17 17:24:00,
2013-10-17 13:29:00,49.8,48.2,29.91,NNW,338,9.2,9.2,94,0.04,CLR,,0.04,100.0,WeatherDisplay:10.37,2013-10-17 17:29:00,
2013-10-17 13:34:00,49.5,48.1,29.91,NNW,338,8.1,8.1,95,0.08,RA,,0.08,100.0,WeatherDisplay:10.37,2013-10-17 17:34:00,
2013-10-17 13:39:00,49.5,48.1,29.91,SSW,202,3.5,3.5,95,0.08,RA,,0.08,100.0,WeatherDisplay:10.37,2013-10-17 17:39:00,
2013-10-17 13:44:00,49.8,48.4,29.85,ENE,68,0.9,0.0,95,0.12,RA,,0.12,300.0,WeatherDisplay:10.37,2013-10-17 17:44:00,
2013-10-17 13:49:00,50.4,49.0,29.85,ESE,112,0.0,0.0,95,0.12,RA,,0.12,600.0,WeatherDisplay:10.37,2013-10-17 17:49:00,
2013-10-17 13:54:00,51.1,49.4,29.85,WNW,292,0.9,0.0,94,0.16,RA,,0.16,700.0,WeatherDisplay:10.37,2013-10-17 17:54:00,
2013-10-17 13:59:00,51.8,50.1,29.85,ENE,68,0.9,0.0,94,0.12,RA,,0.16,900.0,WeatherDisplay:10.37,2013-10-17 17:59:00,
2013-10-17 14:04:00,52.0,49.7,29.85,WNW,292,2.9,2.9,92,0.12,CLR,,0.16,700.0,WeatherDisplay:10.37,2013-10-17 18:04:00,
2013-10-17 14:09:00,52.0,49.7,29.85,NNE,22,3.8,3.8,92,0.12,CLR,,0.16,700.0,WeatherDisplay:10.37,2013-10-17 18:09:00,
2013-10-17 14:14:00,51.4,48.6,29.85,NNW,338,5.8,5.8,90,0.12,CLR,,0.16,700.0,WeatherDisplay:10.37,2013-10-17 18:14:00,
2013-10-17 14:19:00,51.3,48.4,29.85,WSW,248,4.6,4.6,90,0.12,CLR,,0.16,300.0,WeatherDisplay:10.37,2013-10-17 18:19:00,
2013-10-17 14:24:00,50.9,48.7,29.85,WNW,292,8.1,8.1,92,0.12,CLR,,0.16,300.0,WeatherDisplay:10.37,2013-10-17 18:24:00,
2013-10-17 14:29:00,50.7,48.2,29.88,WNW,292,10.4,10.4,91,0.12,CLR,,0.16,500.0,WeatherDisplay:10.37,2013-10-17 18:29:00,
2013-10-17 14:34:00,50.7,47.9,29.88,WNW,292,7.4,7.4,90,0.08,CLR,,0.16,900.0,WeatherDisplay:10.37,2013-10-17 18:34:00,
2013-10-17 14:39:00,52.0,49.4,29.88,WNW,292,5.9,5.9,91,0.08,CLR,,0.16,1100.0,WeatherDisplay:10.37,2013-10-17 18:39:00,
2013-10-17 14:44:00,52.0,48.5,29.85,NNW,338,8.1,8.1,88,0.04,CLR,,0.16,800.0,WeatherDisplay:10.37,2013-10-17 18:44:00,
2013-10-17 14:49:00,51.8,48.1,29.85,WNW,292,6.9,6.9,87,0.04,CLR,,0.16,800.0,WeatherDisplay:10.37,2013-10-17 18:49:00,
2013-10-17 14:54:00,51.8,47.4,29.85,WNW,292,10.4,10.4,85,0.00,CLR,,0.16,1000.0,WeatherDisplay:10.37,2013-10-17 18:54:00,
2013-10-17 14:59:00,52.0,47.9,29.85,WNW,292,9.2,9.2,86,0.00,CLR,,0.16,1000.0,WeatherDisplay:10.37,2013-10-17 18:59:00,
2013-10-17 15:04:00,52.2,48.1,29.85,WNW,292,5.8,5.8,86,0.00,CLR,,0.16,900.0,WeatherDisplay:10.37,2013-10-17 19:04:00,
2013-10-17 15:09:00,52.5,48.1,29.85,NNW,338,6.9,6.9,85,0.00,CLR,,0.16,900.0,WeatherDisplay:10.37,2013-10-17 19:09:00,
2013-10-17 15:14:00,52.7,48.3,29.85,WNW,292,5.8,5.8,85,0.00,CLR,,0.16,800.0,WeatherDisplay:10.37,2013-10-17 19:14:00,
2013-10-17 15:19:00,52.7,47.4,29.85,WNW,292,8.1,8.1,82,0.00,CLR,,0.16,800.0,WeatherDisplay:10.37,2013-10-17 19:19:00,
2013-10-17 15:24:00,52.7,47.4,29.85,WNW,292,6.9,6.9,82,0.00,CLR,,0.16,700.0,WeatherDisplay:10.37,2013-10-17 19:24:00,
2013-10-17 15:29:00,53.2,48.8,29.85,WSW,248,4.6,4.6,85,0.00,CLR,,0.16,700.0,WeatherDisplay:10.37,2013-10-17 19:29:00,
2013-10-17 15:31:00,53.1,48.4,29.85,WNW,292,6.0,6.0,84,0.00,CLR,,0.16,700.0,WeatherDisplay:10.37,2013-10-17 19:31:00,
2013-10-17 15:36:00,53.2,47.2,29.85,NNW,338,9.2,9.2,80,0.00,CLR,,0.16,800.0,WeatherDisplay:10.37,2013-10-17 19:36:00,
2013-10-17 15:41:00,53.4,47.4,29.85,WNW,292,8.1,8.1,80,0.00,CLR,,0.16,900.0,WeatherDisplay:10.37,2013-10-17 19:41:00,
2013-10-17 15:46:00,53.8,47.8,29.85,WNW,292,10.2,10.2,80,0.00,CLR,,0.16,900.0,WeatherDisplay:10.37,2013-10-17 19:46:00,
2013-10-17 15:51:00,54.0,47.9,29.85,NNE,22,8.1,8.1,80,0.00,CLR,,0.16,700.0,WeatherDisplay:10.37,2013-10-17 19:51:00,
2013-10-17 15:56:00,54.1,47.8,29.85,WSW,248,9.2,9.2,79,0.00,CLR,,0.16,600.0,WeatherDisplay:10.37,2013-10-17 19:56:00,
2013-10-17 16:01:00,54.5,47.8,29.85,NNW,338,10.0,10.0,78,0.00,CLR,,0.16,700.0,WeatherDisplay:10.37,2013-10-17 20:01:00,
2013-10-17 16:06:00,53.6,46.6,29.85,WNW,292,8.1,8.1,77,0.00,CLR,,0.16,600.0,WeatherDisplay:10.37,2013-10-17 20:06:00,
2013-10-17 16:11:00,53.2,46.6,29.85,West,270,10.7,10.7,78,0.00,CLR,,0.16,600.0,WeatherDisplay:10.37,2013-10-17 20:11:00,
2013-10-17 16:16:00,53.4,47.4,29.85,WNW,292,8.1,8.1,80,0.00,CLR,,0.16,600.0,WeatherDisplay:10.37,2013-10-17 20:16:00,
2013-10-17 16:21:00,53.4,47.1,29.85,WNW,292,12.7,12.7,79,0.00,CLR,,0.16,500.0,WeatherDisplay:10.37,2013-10-17 20:21:00,
2013-10-17 16:26:00,53.4,46.7,29.85,WNW,292,6.9,6.9,78,0.00,CLR,,0.16,500.0,WeatherDisplay:10.37,2013-10-17 20:26:00,
2013-10-17 16:31:00,53.2,46.9,29.85,WNW,292,8.1,8.1,79,0.00,SCT,,0.16,300.0,WeatherDisplay:10.37,2013-10-17 20:31:00,
2013-10-17 16:36:00,53.1,46.7,29.85,WNW,292,8.1,8.1,79,0.00,BKN,,0.16,200.0,WeatherDisplay:10.37,2013-10-17 20:36:00,
2013-10-17 16:41:00,53.1,47.4,29.85,WSW,248,5.8,5.8,81,0.00,BKN,,0.16,100.0,WeatherDisplay:10.37,2013-10-17 20:41:00,
2013-10-17 16:46:00,52.7,47.0,29.85,WNW,292,8.1,8.1,81,0.00,BKN,,0.16,100.0,WeatherDisplay:10.37,2013-10-17 20:46:00,
2013-10-17 16:51:00,52.5,46.9,29.85,West,270,8.1,8.1,81,0.00,BKN,,0.16,100.0,WeatherDisplay:10.37,2013-10-17 20:51:00,
2013-10-17 16:56:00,52.3,47.0,29.85,West,270,5.8,5.8,82,0.00,BKN,,0.16,0.0,WeatherDisplay:10.37,2013-10-17 20:56:00,
2013-10-17 17:01:00,52.2,47.2,29.85,WSW,248,8.1,8.1,83,0.00,CLR,,0.16,0.0,WeatherDisplay:10.37,2013-10-17 21:01:00,
2013-10-17 17:06:00,52.2,47.5,29.85,WSW,248,4.6,4.7,84,0.00,CLR,,0.16,0.0,WeatherDisplay:10.37,2013-10-17 21:06:00,
2013-10-17 17:11:00,52.2,47.5,29.85,NNW,338,5.8,5.8,84,0.00,CLR,,0.16,0.0,WeatherDisplay:10.37,2013-10-17 21:11:00,
2013-10-17 17:16:00,52.2,47.8,29.85,WNW,292,5.8,5.8,85,0.00,CLR,,0.16,0.0,WeatherDisplay:10.37,2013-10-17 21:16:00,
2013-10-17 17:21:00,52.2,47.8,29.85,NNW,338,5.8,5.8,85,0.00,CLR,,0.16,0.0,WeatherDisplay:10.37,2013-10-17 21:21:00,
2013-10-17 17:26:00,52.2,47.5,29.85,WNW,292,12.8,12.8,84,0.00,CLR,,0.16,0.0,WeatherDisplay:10.37,2013-10-17 21:26:00,
2013-10-17 17:31:00,52.2,46.8,29.85,WNW,292,11.4,11.4,82,0.00,CLR,,0.16,0.0,WeatherDisplay:10.37,2013-10-17 21:31:00,
2013-10-17 17:37:00,52.2,46.2,29.85,WNW,292,11.8,11.8,80,0.00,CLR,,0.16,0.0,WeatherDisplay:10.37,2013-10-17 21:37:00,
2013-10-17 17:42:00,52.2,45.8,29.85,WNW,292,12.7,12.7,79,0.00,CLR,,0.16,0.0,WeatherDisplay:10.37,2013-10-17 21:42:00,
2013-10-17 17:47:00,52.0,45.7,29.85,NNE,22,8.1,8.1,79,0.00,CLR,,0.16,0.0,WeatherDisplay:10.37,2013-10-17 21:47:00,
2013-10-17 17:52:00,52.0,46.0,29.85,WNW,292,6.9,6.9,80,0.00,CLR,,0.16,0.0,WeatherDisplay:10.37,2013-10-17 21:52:00,
2013-10-17 17:57:00,52.0,46.0,29.85,WNW,292,10.4,10.4,80,0.00,CLR,,0.16,0.0,WeatherDisplay:10.37,2013-10-17 21:57:00,
2013-10-17 18:02:00,51.8,45.8,29.88,WNW,292,4.9,4.9,80,0.00,CLR,,0.16,0.0,WeatherDisplay:10.37,2013-10-17 22:02:00,
2013-10-17 18:07:00,51.8,45.8,29.88,WNW,292,9.2,9.2,80,0.00,CLR,,0.16,0.0,WeatherDisplay:10.37,2013-10-17 22:07:00,
2013-10-17 18:12:00,51.8,45.5,29.88,NNW,338,11.5,11.5,79,0.00,CLR,,0.16,0.0,WeatherDisplay:10.37,2013-10-17 22:12:00,
2013-10-17 18:17:00,51.8,45.8,29.88,WNW,292,8.1,8.1,80,0.00,CLR,,0.16,0.0,WeatherDisplay:10.37,2013-10-17 22:17:00,
2013-10-17 18:22:00,51.8,45.5,29.88,WNW,292,8.1,8.1,79,0.00,CLR,,0.16,0.0,WeatherDisplay:10.37,2013-10-17 22:22:00,
2013-10-17 18:27:00,51.8,45.5,29.88,WSW,248,5.8,5.8,79,0.00,CLR,,0.16,0.0,WeatherDisplay:10.37,2013-10-17 22:27:00,
2013-10-17 18:32:00,51.6,45.7,29.88,WNW,292,6.9,6.9,80,0.00,CLR,,0.16,0.0,WeatherDisplay:10.37,2013-10-17 22:32:00,
2013-10-17 18:37:00,51.6,45.7,29.88,SSE,158,8.1,8.1,80,0.00,CLR,,0.16,0.0,WeatherDisplay:10.37,2013-10-17 22:37:00,
2013-10-17 18:42:00,51.6,45.7,29.88,WNW,292,7.8,7.8,80,0.00,CLR,,0.16,0.0,WeatherDisplay:10.37,2013-10-17 22:42:00,
2013-10-17 18:47:00,51.6,46.0,29.88,WNW,292,8.1,8.1,81,0.00,CLR,,0.16,0.0,WeatherDisplay:10.37,2013-10-17 22:47:00,
2013-10-17 18:52:00,51.6,46.0,29.88,SSW,202,6.9,6.9,81,0.00,CLR,,0.16,0.0,WeatherDisplay:10.37,2013-10-17 22:52:00,
2013-10-17 18:57:00,51.6,46.3,29.88,SSW,202,7.4,7.4,82,0.00,CLR,,0.16,0.0,WeatherDisplay:10.37,2013-10-17 22:57:00,
2013-10-17 19:02:00,51.3,46.3,29.88,WNW,292,8.7,8.7,83,0.00,CLR,,0.16,0.0,WeatherDisplay:10.37,2013-10-17 23:02:00,
2013-10-17 19:07:00,50.9,46.2,29.88,WNW,292,9.2,9.2,84,0.00,CLR,,0.16,0.0,WeatherDisplay:10.37,2013-10-17 23:07:00,
2013-10-17 19:12:00,50.7,46.7,29.88,WSW,248,6.4,6.4,86,0.00,CLR,,0.16,0.0,WeatherDisplay:10.37,2013-10-17 23:12:00,
2013-10-17 19:17:00,50.5,46.8,29.91,WNW,292,9.2,9.2,87,0.00,CLR,,0.16,0.0,WeatherDisplay:10.37,2013-10-17 23:17:00,
2013-10-17 19:22:00,50.5,47.1,29.91,WNW,292,9.2,9.2,88,0.00,CLR,,0.16,0.0,WeatherDisplay:10.37,2013-10-17 23:22:00,
2013-10-17 19:27:00,50.4,47.2,29.91,WSW,248,8.1,8.1,89,0.00,CLR,,0.16,0.0,WeatherDisplay:10.37,2013-10-17 23:27:00,
2013-10-17 19:32:00,50.4,47.2,29.88,WNW,292,5.8,5.8,89,0.00,CLR,,0.16,0.0,WeatherDisplay:10.37,2013-10-17 23:32:00,
2013-10-17 19:37:00,50.2,47.4,29.88,SSW,202,8.1,8.1,90,0.00,CLR,,0.16,0.0,WeatherDisplay:10.37,2013-10-17 23:37:00,
2013-10-17 19:42:00,50.4,47.2,29.88,WNW,292,6.4,6.4,89,0.00,CLR,,0.16,0.0,WeatherDisplay:10.37,2013-10-17 23:42:00,
2013-10-17 19:47:00,50.4,47.2,29.91,WNW,292,5.8,5.8,89,0.00,CLR,,0.16,0.0,WeatherDisplay:10.37,2013-10-17 23:47:00,
2013-10-17 19:52:00,50.4,46.9,29.91,WSW,248,8.1,8.1,88,0.00,CLR,,0.16,0.0,WeatherDisplay:10.37,2013-10-17 23:52:00,
2013-10-17 19:57:00,50.4,46.9,29.91,SW,225,5.8,5.8,88,0.00,CLR,,0.16,0.0,WeatherDisplay:10.37,2013-10-17 23:57:00,
2013-10-17 20:02:00,50.5,47.1,29.91,SSW,202,6.9,6.9,88,0.00,CLR,,0.16,0.0,WeatherDisplay:10.37,2013-10-18 00:02:00,
2013-10-17 20:07:00,50.5,46.8,29.91,NNW,338,9.2,9.2,87,0.00,CLR,,0.16,0.0,WeatherDisplay:10.37,2013-10-18 00:07:00,
2013-10-17 20:12:00,50.5,46.5,29.91,WSW,248,5.8,5.8,86,0.00,CLR,,0.16,0.0,WeatherDisplay:10.37,2013-10-18 00:12:00,
2013-10-17 20:17:00,50.5,46.5,29.91,WSW,248,5.8,5.8,86,0.00,CLR,,0.16,0.0,WeatherDisplay:10.37,2013-10-18 00:17:00,
2013-10-17 20:22:00,50.5,46.5,29.91,WNW,292,5.8,5.8,86,0.00,CLR,,0.16,0.0,WeatherDisplay:10.37,2013-10-18 00:22:00,
2013-10-17 20:27:00,50.5,46.5,29.91,WNW,292,5.8,5.8,86,0.00,CLR,,0.16,0.0,WeatherDisplay:10.37,2013-10-18 00:27:00,
2013-10-17 20:32:00,50.5,46.5,29.91,WSW,248,5.8,5.8,86,0.00,CLR,,0.16,0.0,WeatherDisplay:10.37,2013-10-18 00:32:00,
2013-10-17 20:37:00,50.5,46.5,29.91,WSW,248,5.8,5.8,86,0.00,CLR,,0.16,0.0,WeatherDisplay:10.37,2013-10-18 00:37:00,
2013-10-17 20:42:00,50.7,46.4,29.91,WNW,292,5.8,5.8,85,0.00,CLR,,0.16,0.0,WeatherDisplay:10.37,2013-10-18 00:42:00,
2013-10-17 20:47:00,50.7,46.4,29.91,WNW,292,6.9,6.9,85,0.00,CLR,,0.16,0.0,WeatherDisplay:10.37,2013-10-18 00:47:00,
2013-10-17 20:52:00,50.7,46.1,29.91,WNW,292,8.5,8.5,84,0.00,CLR,,0.16,0.0,WeatherDisplay:10.37,2013-10-18 00:52:00,
2013-10-17 20:57:00,50.7,45.4,29.91,West,270,12.3,12.3,82,0.00,CLR,,0.16,0.0,WeatherDisplay:10.37,2013-10-18 00:57:00,
2013-10-17 21:02:00,50.7,45.4,29.94,WNW,292,8.1,8.1,82,0.00,CLR,,0.16,0.0,WeatherDisplay:10.37,2013-10-18 01:02:00,
2013-10-17 21:07:00,50.7,45.1,29.94,WNW,292,8.1,8.1,81,0.00,CLR,,0.16,0.0,WeatherDisplay:10.37,2013-10-18 01:07:00,
2013-10-17 21:12:00,50.7,45.4,29.94,WNW,292,10.0,10.0,82,0.00,CLR,,0.16,0.0,WeatherDisplay:10.37,2013-10-18 01:12:00,
2013-10-17 21:17:00,50.7,45.4,29.94,WNW,292,5.8,5.8,82,0.00,CLR,,0.16,0.0,WeatherDisplay:10.37,2013-10-18 01:17:00,
2013-10-17 21:22:00,50.5,45.2,29.94,WNW,292,9.2,9.2,82,0.00,CLR,,0.16,0.0,WeatherDisplay:10.37,2013-10-18 01:22:00,
2013-10-17 21:27:00,50.5,45.2,29.94,WSW,248,8.1,8.1,82,0.00,CLR,,0.16,0.0,WeatherDisplay:10.37,2013-10-18 01:27:00,
2013-10-17 21:32:00,50.5,45.2,29.94,NNE,22,9.2,9.2,82,0.00,CLR,,0.16,0.0,WeatherDisplay:10.37,2013-10-18 01:32:00,
2013-10-17 21:37:00,50.5,45.2,29.94,WSW,248,8.1,8.1,82,0.00,CLR,,0.16,0.0,WeatherDisplay:10.37,2013-10-18 01:37:00,
2013-10-17 21:42:00,50.5,45.6,29.94,WNW,292,8.1,8.1,83,0.00,CLR,,0.16,0.0,WeatherDisplay:10.37,2013-10-18 01:42:00,
2013-10-17 21:47:00,50.5,45.6,29.94,NNW,338,5.8,5.8,83,0.00,CLR,,0.16,0.0,WeatherDisplay:10.37,2013-10-18 01:47:00,
2013-10-17 21:52:00,50.5,45.6,29.94,WNW,292,6.9,6.9,83,0.00,CLR,,0.16,0.0,WeatherDisplay:10.37,2013-10-18 01:52:00,
2013-10-17 21:57:00,50.5,45.6,29.94,WNW,292,5.8,5.8,83,0.00,CLR,,0.16,0.0,WeatherDisplay:10.37,2013-10-18 01:57:00,
2013-10-17 22:02:00,50.5,45.6,29.94,WSW,248,4.6,4.6,83,0.00,CLR,,0.16,0.0,WeatherDisplay:10.37,2013-10-18 02:02:00,
2013-10-17 22:07:00,50.5,45.6,29.94,WNW,292,5.8,5.8,83,0.00,CLR,,0.16,0.0,WeatherDisplay:10.37,2013-10-18 02:07:00,
2013-10-17 22:12:00,50.4,45.7,29.94,WNW,292,4.6,4.6,84,0.00,CLR,,0.16,0.0,WeatherDisplay:10.37,2013-10-18 02:12:00,
2013-10-17 22:17:00,50.5,45.6,29.94,WNW,292,6.9,6.9,83,0.00,CLR,,0.16,0.0,WeatherDisplay:10.37,2013-10-18 02:17:00,
2013-10-17 22:22:00,50.5,45.2,29.94,WNW,292,8.1,8.1,82,0.00,CLR,,0.16,0.0,WeatherDisplay:10.37,2013-10-18 02:22:00,
2013-10-17 22:27:00,50.4,45.1,29.94,WSW,248,6.9,6.9,82,0.00,CLR,,0.16,0.0,WeatherDisplay:10.37,2013-10-18 02:27:00,
2013-10-17 22:32:00,50.4,45.1,29.94,West,270,7.4,7.4,82,0.00,CLR,,0.16,0.0,WeatherDisplay:10.37,2013-10-18 02:32:00,
2013-10-17 22:37:00,50.4,44.7,29.94,WNW,292,10.4,10.4,81,0.00,CLR,,0.16,0.0,WeatherDisplay:10.37,2013-10-18 02:37:00,
2013-10-17 22:42:00,50.2,44.2,29.94,WNW,292,8.7,8.7,80,0.00,CLR,,0.16,0.0,WeatherDisplay:10.37,2013-10-18 02:42:00,
2013-10-17 22:47:00,50.0,44.4,29.94,WNW,292,6.9,6.9,81,0.00,CLR,,0.16,0.0,WeatherDisplay:10.37,2013-10-18 02:47:00,
2013-10-17 22:52:00,49.6,44.0,29.94,WNW,292,9.2,9.2,81,0.00,CLR,,0.16,0.0,WeatherDisplay:10.37,2013-10-18 02:52:00,
2013-10-17 22:57:00,49.5,43.9,29.94,NNW,338,5.8,5.8,81,0.00,CLR,,0.16,0.0,WeatherDisplay:10.37,2013-10-18 02:57:00,
2013-10-17 23:02:00,49.1,43.8,29.94,WNW,292,5.8,5.8,82,0.00,CLR,,0.16,0.0,WeatherDisplay:10.37,2013-10-18 03:02:00,
2013-10-17 23:07:00,48.9,43.7,29.94,WSW,248,8.1,8.1,82,0.00,CLR,,0.16,0.0,WeatherDisplay:10.37,2013-10-18 03:07:00,
2013-10-17 23:12:00,48.7,43.5,29.94,WNW,292,8.1,8.1,82,0.00,CLR,,0.16,0.0,WeatherDisplay:10.37,2013-10-18 03:12:00,
2013-10-17 23:18:00,48.6,43.6,29.94,WNW,292,7.1,7.1,83,0.00,CLR,,0.16,0.0,WeatherDisplay:10.37,2013-10-18 03:18:00,
2013-10-17 23:23:00,48.0,43.1,29.94,WNW,292,3.5,3.5,83,0.00,CLR,,0.16,0.0,WeatherDisplay:10.37,2013-10-18 03:23:00,
2013-10-17 23:28:00,47.8,43.2,29.94,WSW,248,3.5,3.6,84,0.00,CLR,,0.16,0.0,WeatherDisplay:10.37,2013-10-18 03:28:00,
2013-10-17 23:33:00,47.5,43.2,29.94,WSW,248,3.5,3.5,85,0.00,CLR,,0.16,0.0,WeatherDisplay:10.37,2013-10-18 03:33:00,
2013-10-17 23:38:00,47.3,43.0,29.94,NNW,338,1.2,2.6,85,0.00,CLR,,0.16,0.0,WeatherDisplay:10.37,2013-10-18 03:38:00,
2013-10-17 23:43:00,47.1,43.1,29.94,WSW,248,3.5,3.5,86,0.00,CLR,,0.16,0.0,WeatherDisplay:10.37,2013-10-18 03:43:00,
2013-10-17 23:48:00,46.9,43.3,29.94,WNW,292,4.6,4.6,87,0.00,CLR,,0.16,0.0,WeatherDisplay:10.37,2013-10-18 03:48:00,
2013-10-17 23:53:00,46.9,43.6,29.94,WSW,248,4.6,4.6,88,0.00,CLR,,0.16,0.0,WeatherDisplay:10.37,2013-10-18 03:53:00,
2013-10-17 23:58:00,46.8,43.4,29.94,WNW,292,4.6,4.6,88,0.00,CLR,,0.16,0.0,WeatherDisplay:10.37,2013-10-18 03:58:00,